sensor_id;sensor_type;location;lat;lon;timestamp;pressure;altitude;pressure_sealevel;temperature;humidity
64230;BME280;50547;49.498;0.092;2023-03-15T00:01:08;1013.84;;;8.36;80.61
64230;BME280;50547;49.498;0.092;2023-03-15T00:03:38;1013.76;;;8.38;80.77
64230;BME280;50547;49.498;0.092;2023-03-15T00:06:07;1013.84;;;8.35;81.30
64230;BME280;50547;49.498;0.092;2023-03-15T00:08:37;1013.80;;;8.09;81.93
64230;BME280;50547;49.498;0.092;2023-03-15T00:11:06;1013.88;;;8.17;81.36
64230;BME280;50547;49.498;0.092;2023-03-15T00:13:35;1013.95;;;8.16;80.80
64230;BME280;50547;49.498;0.092;2023-03-15T00:16:05;1013.86;;;8.08;81.41
64230;BME280;50547;49.498;0.092;2023-03-15T00:18:34;1013.76;;;8.16;80.95
64230;BME280;50547;49.498;0.092;2023-03-15T00:21:04;1013.76;;;8.19;80.86
64230;BME280;50547;49.498;0.092;2023-03-15T00:23:33;1013.76;;;8.24;80.95
64230;BME280;50547;49.498;0.092;2023-03-15T00:26:02;1013.80;;;8.31;81.28
64230;BME280;50547;49.498;0.092;2023-03-15T00:28:32;1013.84;;;8.30;81.48
64230;BME280;50547;49.498;0.092;2023-03-15T00:31:02;1013.78;;;8.34;81.41
64230;BME280;50547;49.498;0.092;2023-03-15T00:33:31;1013.93;;;8.34;81.64
64230;BME280;50547;49.498;0.092;2023-03-15T00:36:02;1013.93;;;8.38;81.50
64230;BME280;50547;49.498;0.092;2023-03-15T00:38:32;1013.93;;;8.35;81.64
64230;BME280;50547;49.498;0.092;2023-03-15T00:41:05;1013.95;;;8.33;82.11
64230;BME280;50547;49.498;0.092;2023-03-15T00:43:34;1013.90;;;8.30;82.34
64230;BME280;50547;49.498;0.092;2023-03-15T00:46:04;1013.90;;;8.40;82.01
64230;BME280;50547;49.498;0.092;2023-03-15T00:48:34;1013.90;;;8.37;82.33
64230;BME280;50547;49.498;0.092;2023-03-15T00:51:06;1013.91;;;8.23;82.72
64230;BME280;50547;49.498;0.092;2023-03-15T00:53:37;1013.90;;;8.30;82.14
64230;BME280;50547;49.498;0.092;2023-03-15T00:56:09;1013.91;;;8.21;82.34
64230;BME280;50547;49.498;0.092;2023-03-15T00:58:39;1014.03;;;8.25;82.07
64230;BME280;50547;49.498;0.092;2023-03-15T01:01:10;1014.05;;;8.26;81.89
64230;BME280;50547;49.498;0.092;2023-03-15T01:03:40;1013.95;;;8.29;81.54
64230;BME280;50547;49.498;0.092;2023-03-15T01:06:11;1014.07;;;8.23;81.95
64230;BME280;50547;49.498;0.092;2023-03-15T01:08:41;1014.09;;;8.23;82.09
64230;BME280;50547;49.498;0.092;2023-03-15T01:11:13;1014.07;;;8.24;82.17
64230;BME280;50547;49.498;0.092;2023-03-15T01:13:43;1014.09;;;8.10;82.60
64230;BME280;50547;49.498;0.092;2023-03-15T01:16:13;1013.97;;;8.09;82.67
64230;BME280;50547;49.498;0.092;2023-03-15T01:18:42;1014.03;;;8.19;82.31
64230;BME280;50547;49.498;0.092;2023-03-15T01:21:12;1013.99;;;8.19;82.40
64230;BME280;50547;49.498;0.092;2023-03-15T01:23:42;1014.09;;;8.13;82.58
64230;BME280;50547;49.498;0.092;2023-03-15T01:26:13;1014.05;;;8.16;82.41
64230;BME280;50547;49.498;0.092;2023-03-15T01:28:43;1014.11;;;8.22;81.90
64230;BME280;50547;49.498;0.092;2023-03-15T01:31:16;1013.95;;;8.21;81.74
64230;BME280;50547;49.498;0.092;2023-03-15T01:33:46;1013.93;;;8.14;82.32
64230;BME280;50547;49.498;0.092;2023-03-15T01:36:15;1013.99;;;8.22;82.29
64230;BME280;50547;49.498;0.092;2023-03-15T01:38:45;1013.93;;;8.20;82.52
64230;BME280;50547;49.498;0.092;2023-03-15T01:41:15;1013.99;;;8.22;82.31
64230;BME280;50547;49.498;0.092;2023-03-15T01:43:44;1014.13;;;8.18;82.57
64230;BME280;50547;49.498;0.092;2023-03-15T01:46:28;1014.09;;;8.15;82.69
64230;BME280;50547;49.498;0.092;2023-03-15T01:49:02;1014.07;;;8.19;82.66
64230;BME280;50547;49.498;0.092;2023-03-15T01:51:36;1013.99;;;8.15;82.91
64230;BME280;50547;49.498;0.092;2023-03-15T01:54:11;1013.99;;;8.23;82.91
64230;BME280;50547;49.498;0.092;2023-03-15T01:56:44;1014.03;;;8.24;82.94
64230;BME280;50547;49.498;0.092;2023-03-15T01:59:17;1014.01;;;8.27;82.97
64230;BME280;50547;49.498;0.092;2023-03-15T02:01:49;1014.07;;;8.30;83.07
64230;BME280;50547;49.498;0.092;2023-03-15T02:04:23;1013.93;;;8.29;82.90
64230;BME280;50547;49.498;0.092;2023-03-15T02:06:55;1013.99;;;8.29;82.94
64230;BME280;50547;49.498;0.092;2023-03-15T02:09:33;1014.05;;;8.30;82.98
64230;BME280;50547;49.498;0.092;2023-03-15T02:12:04;1013.99;;;8.35;82.51
64230;BME280;50547;49.498;0.092;2023-03-15T02:14:34;1014.11;;;8.36;82.44
64230;BME280;50547;49.498;0.092;2023-03-15T02:17:03;1013.93;;;8.30;82.70
64230;BME280;50547;49.498;0.092;2023-03-15T02:19:40;1014.01;;;8.33;82.57
64230;BME280;50547;49.498;0.092;2023-03-15T02:22:23;1014.03;;;8.33;82.42
64230;BME280;50547;49.498;0.092;2023-03-15T02:24:57;1014.03;;;8.39;82.12
64230;BME280;50547;49.498;0.092;2023-03-15T02:27:31;1014.09;;;8.43;82.00
64230;BME280;50547;49.498;0.092;2023-03-15T02:30:02;1014.15;;;8.53;81.92
64230;BME280;50547;49.498;0.092;2023-03-15T02:32:31;1014.03;;;8.42;82.63
64230;BME280;50547;49.498;0.092;2023-03-15T02:35:00;1014.09;;;8.39;82.87
64230;BME280;50547;49.498;0.092;2023-03-15T02:37:30;1014.01;;;8.40;82.68
64230;BME280;50547;49.498;0.092;2023-03-15T02:39:59;1014.03;;;8.35;82.35
64230;BME280;50547;49.498;0.092;2023-03-15T02:42:28;1014.01;;;8.35;81.98
64230;BME280;50547;49.498;0.092;2023-03-15T02:44:57;1013.99;;;8.42;81.46
64230;BME280;50547;49.498;0.092;2023-03-15T02:47:29;1014.05;;;8.42;81.61
64230;BME280;50547;49.498;0.092;2023-03-15T02:50:00;1014.05;;;8.48;81.58
64230;BME280;50547;49.498;0.092;2023-03-15T02:52:29;1014.03;;;8.46;81.69
64230;BME280;50547;49.498;0.092;2023-03-15T02:54:59;1013.99;;;8.40;81.75
64230;BME280;50547;49.498;0.092;2023-03-15T02:57:28;1013.93;;;8.43;81.63
64230;BME280;50547;49.498;0.092;2023-03-15T02:59:57;1013.97;;;8.44;81.67
64230;BME280;50547;49.498;0.092;2023-03-15T03:02:26;1013.91;;;8.47;81.61
64230;BME280;50547;49.498;0.092;2023-03-15T03:04:56;1013.99;;;8.46;82.02
64230;BME280;50547;49.498;0.092;2023-03-15T03:07:25;1013.93;;;8.46;82.16
64230;BME280;50547;49.498;0.092;2023-03-15T03:09:50;1013.99;;;8.40;82.49
64230;BME280;50547;49.498;0.092;2023-03-15T03:12:19;1014.01;;;8.38;82.47
64230;BME280;50547;49.498;0.092;2023-03-15T03:14:49;1013.99;;;8.41;82.06
64230;BME280;50547;49.498;0.092;2023-03-15T03:17:18;1014.05;;;8.43;81.86
64230;BME280;50547;49.498;0.092;2023-03-15T03:19:48;1013.97;;;8.37;81.69
64230;BME280;50547;49.498;0.092;2023-03-15T03:22:17;1013.99;;;8.29;82.20
64230;BME280;50547;49.498;0.092;2023-03-15T03:24:46;1014.09;;;8.37;81.93
64230;BME280;50547;49.498;0.092;2023-03-15T03:27:16;1014.13;;;8.41;81.76
64230;BME280;50547;49.498;0.092;2023-03-15T03:29:45;1014.19;;;8.41;82.24
64230;BME280;50547;49.498;0.092;2023-03-15T03:32:15;1014.15;;;8.40;82.59
64230;BME280;50547;49.498;0.092;2023-03-15T03:34:44;1014.11;;;8.39;82.47
64230;BME280;50547;49.498;0.092;2023-03-15T03:37:13;1014.11;;;8.45;82.54
64230;BME280;50547;49.498;0.092;2023-03-15T03:39:42;1014.07;;;8.40;82.56
64230;BME280;50547;49.498;0.092;2023-03-15T03:42:12;1014.13;;;8.45;82.79
64230;BME280;50547;49.498;0.092;2023-03-15T03:44:42;1014.17;;;8.48;82.55
64230;BME280;50547;49.498;0.092;2023-03-15T03:47:11;1014.13;;;8.46;82.74
64230;BME280;50547;49.498;0.092;2023-03-15T03:49:40;1014.09;;;8.55;82.38
64230;BME280;50547;49.498;0.092;2023-03-15T03:52:09;1014.11;;;8.55;82.63
64230;BME280;50547;49.498;0.092;2023-03-15T03:54:38;1014.13;;;8.53;82.69
64230;BME280;50547;49.498;0.092;2023-03-15T03:57:08;1014.07;;;8.54;82.43
64230;BME280;50547;49.498;0.092;2023-03-15T03:59:38;1013.97;;;8.53;82.50
64230;BME280;50547;49.498;0.092;2023-03-15T04:02:07;1014.01;;;8.62;82.27
64230;BME280;50547;49.498;0.092;2023-03-15T04:04:36;1014.03;;;8.63;82.06
64230;BME280;50547;49.498;0.092;2023-03-15T04:07:05;1014.17;;;8.63;81.77
64230;BME280;50547;49.498;0.092;2023-03-15T04:09:35;1014.21;;;8.67;81.37
64230;BME280;50547;49.498;0.092;2023-03-15T04:12:01;1014.15;;;8.62;81.62
64230;BME280;50547;49.498;0.092;2023-03-15T04:14:31;1014.11;;;8.59;81.72
64230;BME280;50547;49.498;0.092;2023-03-15T04:16:57;1014.27;;;8.59;82.11
64230;BME280;50547;49.498;0.092;2023-03-15T04:19:26;1014.17;;;8.70;81.76
64230;BME280;50547;49.498;0.092;2023-03-15T04:21:55;1014.23;;;8.70;81.82
64230;BME280;50547;49.498;0.092;2023-03-15T04:24:25;1014.15;;;8.66;82.04
64230;BME280;50547;49.498;0.092;2023-03-15T04:26:54;1014.23;;;8.69;82.26
64230;BME280;50547;49.498;0.092;2023-03-15T04:29:23;1014.21;;;8.72;82.34
64230;BME280;50547;49.498;0.092;2023-03-15T04:31:49;1014.33;;;8.76;82.17
64230;BME280;50547;49.498;0.092;2023-03-15T04:34:18;1014.38;;;8.75;82.30
64230;BME280;50547;49.498;0.092;2023-03-15T04:36:47;1014.38;;;8.74;82.56
64230;BME280;50547;49.498;0.092;2023-03-15T04:39:17;1014.42;;;8.72;82.73
64230;BME280;50547;49.498;0.092;2023-03-15T04:41:46;1014.40;;;8.77;82.46
64230;BME280;50547;49.498;0.092;2023-03-15T04:44:15;1014.44;;;8.70;83.04
64230;BME280;50547;49.498;0.092;2023-03-15T04:46:41;1014.42;;;8.71;83.15
64230;BME280;50547;49.498;0.092;2023-03-15T04:49:10;1014.40;;;8.68;83.23
64230;BME280;50547;49.498;0.092;2023-03-15T04:51:39;1014.42;;;8.68;83.02
64230;BME280;50547;49.498;0.092;2023-03-15T04:54:09;1014.38;;;8.39;84.01
64230;BME280;50547;49.498;0.092;2023-03-15T04:56:38;1014.37;;;8.33;84.08
64230;BME280;50547;49.498;0.092;2023-03-15T04:59:08;1014.37;;;8.26;83.34
64230;BME280;50547;49.498;0.092;2023-03-15T05:01:37;1014.35;;;8.37;82.74
64230;BME280;50547;49.498;0.092;2023-03-15T05:04:06;1014.35;;;8.35;82.58
64230;BME280;50547;49.498;0.092;2023-03-15T05:06:35;1014.33;;;8.25;82.74
64230;BME280;50547;49.498;0.092;2023-03-15T05:09:01;1014.29;;;8.47;81.68
64230;BME280;50547;49.498;0.092;2023-03-15T05:11:30;1014.38;;;8.41;82.21
64230;BME280;50547;49.498;0.092;2023-03-15T05:13:59;1014.40;;;8.54;81.87
64230;BME280;50547;49.498;0.092;2023-03-15T05:16:25;1014.46;;;8.42;82.63
64230;BME280;50547;49.498;0.092;2023-03-15T05:18:54;1014.48;;;8.58;81.86
64230;BME280;50547;49.498;0.092;2023-03-15T05:21:23;1014.44;;;8.51;81.96
64230;BME280;50547;49.498;0.092;2023-03-15T05:23:49;1014.52;;;8.51;82.25
64230;BME280;50547;49.498;0.092;2023-03-15T05:26:18;1014.52;;;8.28;83.42
64230;BME280;50547;49.498;0.092;2023-03-15T05:28:47;1014.50;;;8.25;82.62
64230;BME280;50547;49.498;0.092;2023-03-15T05:31:17;1014.60;;;8.27;82.58
64230;BME280;50547;49.498;0.092;2023-03-15T05:33:46;1014.56;;;8.46;82.00
64230;BME280;50547;49.498;0.092;2023-03-15T05:36:15;1014.52;;;8.53;82.53
64230;BME280;50547;49.498;0.092;2023-03-15T05:38:41;1014.52;;;8.51;82.91
64230;BME280;50547;49.498;0.092;2023-03-15T05:41:10;1014.56;;;8.58;82.22
64230;BME280;50547;49.498;0.092;2023-03-15T05:43:39;1014.58;;;8.57;82.52
64230;BME280;50547;49.498;0.092;2023-03-15T05:46:05;1014.50;;;8.63;82.81
64230;BME280;50547;49.498;0.092;2023-03-15T05:48:34;1014.50;;;8.66;82.58
64230;BME280;50547;49.498;0.092;2023-03-15T05:51:04;1014.60;;;8.55;83.15
64230;BME280;50547;49.498;0.092;2023-03-15T05:53:33;1014.62;;;8.65;82.52
64230;BME280;50547;49.498;0.092;2023-03-15T05:56:03;1014.56;;;8.42;83.94
64230;BME280;50547;49.498;0.092;2023-03-15T05:58:29;1014.58;;;8.57;83.36
64230;BME280;50547;49.498;0.092;2023-03-15T06:00:58;1014.62;;;8.59;83.29
64230;BME280;50547;49.498;0.092;2023-03-15T06:03:27;1014.66;;;8.65;83.16
64230;BME280;50547;49.498;0.092;2023-03-15T06:05:53;1014.68;;;8.57;83.66
64230;BME280;50547;49.498;0.092;2023-03-15T06:08:22;1014.66;;;8.58;83.66
64230;BME280;50547;49.498;0.092;2023-03-15T06:10:51;1014.58;;;8.60;83.69
64230;BME280;50547;49.498;0.092;2023-03-15T06:13:20;1014.66;;;8.24;85.38
64230;BME280;50547;49.498;0.092;2023-03-15T06:15:50;1014.70;;;8.15;85.21
64230;BME280;50547;49.498;0.092;2023-03-15T06:18:19;1014.70;;;8.06;85.55
64230;BME280;50547;49.498;0.092;2023-03-15T06:20:48;1014.58;;;8.09;84.79
64230;BME280;50547;49.498;0.092;2023-03-15T06:23:17;1014.70;;;7.98;84.50
64230;BME280;50547;49.498;0.092;2023-03-15T06:25:46;1014.80;;;7.92;84.54
64230;BME280;50547;49.498;0.092;2023-03-15T06:28:15;1014.78;;;7.87;84.35
64230;BME280;50547;49.498;0.092;2023-03-15T06:30:45;1014.78;;;8.04;83.42
64230;BME280;50547;49.498;0.092;2023-03-15T06:33:14;1014.74;;;8.04;83.88
64230;BME280;50547;49.498;0.092;2023-03-15T06:35:43;1014.78;;;8.06;83.89
64230;BME280;50547;49.498;0.092;2023-03-15T06:38:12;1014.89;;;8.04;83.59
64230;BME280;50547;49.498;0.092;2023-03-15T06:40:43;1014.89;;;8.09;83.59
64230;BME280;50547;49.498;0.092;2023-03-15T06:43:12;1014.99;;;8.01;85.15
64230;BME280;50547;49.498;0.092;2023-03-15T06:45:41;1014.99;;;8.05;85.60
64230;BME280;50547;49.498;0.092;2023-03-15T06:48:11;1015.07;;;7.91;86.20
64230;BME280;50547;49.498;0.092;2023-03-15T06:50:41;1015.17;;;7.89;86.17
64230;BME280;50547;49.498;0.092;2023-03-15T06:53:10;1015.17;;;8.02;85.43
64230;BME280;50547;49.498;0.092;2023-03-15T06:55:39;1015.13;;;8.11;84.91
64230;BME280;50547;49.498;0.092;2023-03-15T06:58:08;1015.13;;;8.16;84.67
64230;BME280;50547;49.498;0.092;2023-03-15T07:00:37;1015.07;;;8.27;84.04
64230;BME280;50547;49.498;0.092;2023-03-15T07:03:06;1015.29;;;8.03;85.92
64230;BME280;50547;49.498;0.092;2023-03-15T07:05:36;1015.23;;;7.90;86.63
64230;BME280;50547;49.498;0.092;2023-03-15T07:08:05;1015.34;;;7.90;86.12
64230;BME280;50547;49.498;0.092;2023-03-15T07:10:34;1015.31;;;8.00;85.54
64230;BME280;50547;49.498;0.092;2023-03-15T07:13:03;1015.27;;;8.05;85.36
64230;BME280;50547;49.498;0.092;2023-03-15T07:15:34;1015.29;;;8.04;85.15
64230;BME280;50547;49.498;0.092;2023-03-15T07:18:04;1015.31;;;8.17;85.00
64230;BME280;50547;49.498;0.092;2023-03-15T07:20:33;1015.38;;;8.20;85.48
64230;BME280;50547;49.498;0.092;2023-03-15T07:23:03;1015.46;;;8.32;85.26
64230;BME280;50547;49.498;0.092;2023-03-15T07:25:32;1015.44;;;8.10;86.69
64230;BME280;50547;49.498;0.092;2023-03-15T07:28:01;1015.52;;;8.12;87.11
64230;BME280;50547;49.498;0.092;2023-03-15T07:30:30;1015.56;;;8.18;86.73
64230;BME280;50547;49.498;0.092;2023-03-15T07:32:59;1015.56;;;8.55;84.97
64230;BME280;50547;49.498;0.092;2023-03-15T07:35:28;1015.58;;;8.60;84.98
64230;BME280;50547;49.498;0.092;2023-03-15T07:37:57;1015.62;;;8.61;84.83
64230;BME280;50547;49.498;0.092;2023-03-15T07:40:26;1015.58;;;8.60;84.80
64230;BME280;50547;49.498;0.092;2023-03-15T07:42:56;1015.66;;;8.48;85.03
64230;BME280;50547;49.498;0.092;2023-03-15T07:45:25;1015.70;;;8.54;84.61
64230;BME280;50547;49.498;0.092;2023-03-15T07:47:54;1015.62;;;8.63;84.27
64230;BME280;50547;49.498;0.092;2023-03-15T07:50:23;1015.64;;;8.72;84.18
64230;BME280;50547;49.498;0.092;2023-03-15T07:52:53;1015.64;;;8.69;84.51
64230;BME280;50547;49.498;0.092;2023-03-15T07:55:22;1015.82;;;8.86;84.13
64230;BME280;50547;49.498;0.092;2023-03-15T07:57:57;1015.86;;;9.06;83.32
64230;BME280;50547;49.498;0.092;2023-03-15T08:00:27;1015.86;;;8.79;84.94
64230;BME280;50547;49.498;0.092;2023-03-15T08:02:57;1015.94;;;8.96;84.51
64230;BME280;50547;49.498;0.092;2023-03-15T08:05:27;1015.92;;;8.92;84.75
64230;BME280;50547;49.498;0.092;2023-03-15T08:07:56;1015.94;;;8.64;85.90
64230;BME280;50547;49.498;0.092;2023-03-15T08:10:25;1015.94;;;8.85;84.58
64230;BME280;50547;49.498;0.092;2023-03-15T08:12:52;1015.92;;;9.10;83.41
64230;BME280;50547;49.498;0.092;2023-03-15T08:15:21;1015.94;;;9.33;82.36
64230;BME280;50547;49.498;0.092;2023-03-15T08:17:50;1016.02;;;9.28;82.92
64230;BME280;50547;49.498;0.092;2023-03-15T08:20:20;1016.08;;;8.94;84.92
64230;BME280;50547;49.498;0.092;2023-03-15T08:22:49;1016.12;;;8.96;84.85
64230;BME280;50547;49.498;0.092;2023-03-15T08:25:20;1016.16;;;9.01;84.50
64230;BME280;50547;49.498;0.092;2023-03-15T08:27:50;1016.17;;;8.94;84.85
64230;BME280;50547;49.498;0.092;2023-03-15T08:30:20;1016.17;;;8.81;84.85
64230;BME280;50547;49.498;0.092;2023-03-15T08:32:50;1016.25;;;8.72;85.55
64230;BME280;50547;49.498;0.092;2023-03-15T08:35:17;1016.21;;;8.82;84.65
64230;BME280;50547;49.498;0.092;2023-03-15T08:37:46;1016.21;;;8.87;84.08
64230;BME280;50547;49.498;0.092;2023-03-15T08:40:18;1016.25;;;8.60;85.39
64230;BME280;50547;49.498;0.092;2023-03-15T08:42:47;1016.27;;;8.62;85.23
64230;BME280;50547;49.498;0.092;2023-03-15T08:45:16;1016.27;;;8.34;86.81
64230;BME280;50547;49.498;0.092;2023-03-15T08:47:45;1016.25;;;8.51;85.70
64230;BME280;50547;49.498;0.092;2023-03-15T08:50:16;1016.27;;;8.53;85.54
64230;BME280;50547;49.498;0.092;2023-03-15T08:52:45;1016.21;;;8.73;84.81
64230;BME280;50547;49.498;0.092;2023-03-15T08:55:14;1016.08;;;8.78;84.74
64230;BME280;50547;49.498;0.092;2023-03-15T08:57:43;1016.10;;;8.87;84.57
64230;BME280;50547;49.498;0.092;2023-03-15T09:00:13;1016.10;;;9.13;83.38
64230;BME280;50547;49.498;0.092;2023-03-15T09:02:43;1016.10;;;9.21;83.07
64230;BME280;50547;49.498;0.092;2023-03-15T09:05:12;1016.12;;;9.24;83.28
64230;BME280;50547;49.498;0.092;2023-03-15T09:07:41;1016.14;;;9.30;83.24
64230;BME280;50547;49.498;0.092;2023-03-15T09:10:12;1016.16;;;9.49;82.73
64230;BME280;50547;49.498;0.092;2023-03-15T09:12:43;1016.14;;;9.45;83.21
64230;BME280;50547;49.498;0.092;2023-03-15T09:15:13;1016.14;;;9.70;82.32
64230;BME280;50547;49.498;0.092;2023-03-15T09:17:43;1016.08;;;9.50;83.40
64230;BME280;50547;49.498;0.092;2023-03-15T09:20:12;1016.10;;;9.63;83.06
64230;BME280;50547;49.498;0.092;2023-03-15T09:22:42;1016.08;;;9.53;83.48
64230;BME280;50547;49.498;0.092;2023-03-15T09:25:11;1016.12;;;9.91;81.93
64230;BME280;50547;49.498;0.092;2023-03-15T09:27:40;1016.12;;;10.11;81.34
64230;BME280;50547;49.498;0.092;2023-03-15T09:30:11;1016.06;;;10.16;81.62
64230;BME280;50547;49.498;0.092;2023-03-15T09:32:40;1016.06;;;10.24;81.20
64230;BME280;50547;49.498;0.092;2023-03-15T09:35:12;1016.12;;;10.10;81.67
64230;BME280;50547;49.498;0.092;2023-03-15T09:37:42;1016.12;;;10.13;81.50
64230;BME280;50547;49.498;0.092;2023-03-15T09:40:16;1016.19;;;10.45;80.96
64230;BME280;50547;49.498;0.092;2023-03-15T09:42:56;1016.16;;;10.17;81.70
64230;BME280;50547;49.498;0.092;2023-03-15T09:45:37;1016.16;;;10.47;80.79
64230;BME280;50547;49.498;0.092;2023-03-15T09:48:12;1016.12;;;10.96;79.05
64230;BME280;50547;49.498;0.092;2023-03-15T09:50:45;1016.14;;;10.87;79.87
64230;BME280;50547;49.498;0.092;2023-03-15T09:53:20;1016.14;;;11.25;78.75
64230;BME280;50547;49.498;0.092;2023-03-15T09:55:52;1016.10;;;11.47;78.25
64230;BME280;50547;49.498;0.092;2023-03-15T09:58:23;1016.14;;;11.59;78.28
64230;BME280;50547;49.498;0.092;2023-03-15T10:00:55;1016.17;;;11.53;78.55
64230;BME280;50547;49.498;0.092;2023-03-15T10:03:31;1016.17;;;11.61;78.45
64230;BME280;50547;49.498;0.092;2023-03-15T10:06:06;1016.27;;;11.31;79.05
64230;BME280;50547;49.498;0.092;2023-03-15T10:08:40;1016.31;;;11.30;78.42
64230;BME280;50547;49.498;0.092;2023-03-15T10:11:14;1016.19;;;11.66;77.69
64230;BME280;50547;49.498;0.092;2023-03-15T10:13:59;1016.19;;;11.94;77.06
64230;BME280;50547;49.498;0.092;2023-03-15T10:16:38;1016.21;;;12.17;76.24
64230;BME280;50547;49.498;0.092;2023-03-15T10:19:16;1016.25;;;11.96;76.87
64230;BME280;50547;49.498;0.092;2023-03-15T10:21:55;1016.29;;;12.11;76.22
64230;BME280;50547;49.498;0.092;2023-03-15T10:24:33;1016.29;;;12.20;76.10
64230;BME280;50547;49.498;0.092;2023-03-15T10:27:14;1016.27;;;12.48;75.67
64230;BME280;50547;49.498;0.092;2023-03-15T10:29:45;1016.29;;;12.43;75.79
64230;BME280;50547;49.498;0.092;2023-03-15T10:32:17;1016.33;;;12.38;76.39
64230;BME280;50547;49.498;0.092;2023-03-15T10:34:48;1016.29;;;12.21;76.25
64230;BME280;50547;49.498;0.092;2023-03-15T10:37:19;1016.29;;;12.46;75.88
64230;BME280;50547;49.498;0.092;2023-03-15T10:39:53;1016.29;;;12.24;76.32
64230;BME280;50547;49.498;0.092;2023-03-15T10:42:26;1016.27;;;12.29;76.15
64230;BME280;50547;49.498;0.092;2023-03-15T10:44:58;1016.25;;;12.37;76.00
64230;BME280;50547;49.498;0.092;2023-03-15T10:47:27;1016.27;;;12.60;75.22
64230;BME280;50547;49.498;0.092;2023-03-15T10:49:58;1016.23;;;12.48;75.69
64230;BME280;50547;49.498;0.092;2023-03-15T10:52:32;1016.21;;;12.47;75.55
64230;BME280;50547;49.498;0.092;2023-03-15T10:55:05;1016.23;;;12.47;75.47
64230;BME280;50547;49.498;0.092;2023-03-15T10:57:37;1016.29;;;12.73;75.24
64230;BME280;50547;49.498;0.092;2023-03-15T11:02:49;1016.31;;;12.59;75.03
64230;BME280;50547;49.498;0.092;2023-03-15T11:05:19;1016.33;;;12.78;74.11
64230;BME280;50547;49.498;0.092;2023-03-15T11:07:56;1016.37;;;12.86;73.78
64230;BME280;50547;49.498;0.092;2023-03-15T11:10:28;1016.37;;;12.56;73.57
64230;BME280;50547;49.498;0.092;2023-03-15T11:13:11;1016.35;;;13.06;72.66
64230;BME280;50547;49.498;0.092;2023-03-15T11:15:48;1016.31;;;13.55;71.58
64230;BME280;50547;49.498;0.092;2023-03-15T11:18:26;1016.33;;;13.61;71.01
64230;BME280;50547;49.498;0.092;2023-03-15T11:20:56;1016.29;;;13.68;70.75
64230;BME280;50547;49.498;0.092;2023-03-15T11:23:28;1016.31;;;13.11;71.24
64230;BME280;50547;49.498;0.092;2023-03-15T11:26:00;1016.33;;;13.13;72.59
64230;BME280;50547;49.498;0.092;2023-03-15T11:28:32;1016.37;;;13.45;71.15
64230;BME280;50547;49.498;0.092;2023-03-15T11:31:04;1016.33;;;13.51;70.67
64230;BME280;50547;49.498;0.092;2023-03-15T11:33:41;1016.29;;;13.74;69.70
64230;BME280;50547;49.498;0.092;2023-03-15T11:36:16;1016.29;;;13.94;69.03
64230;BME280;50547;49.498;0.092;2023-03-15T11:38:46;1016.25;;;13.67;68.42
64230;BME280;50547;49.498;0.092;2023-03-15T11:41:24;1016.25;;;13.81;68.97
64230;BME280;50547;49.498;0.092;2023-03-15T11:44:01;1016.19;;;14.18;68.23
64230;BME280;50547;49.498;0.092;2023-03-15T11:46:34;1016.25;;;13.96;68.54
64230;BME280;50547;49.498;0.092;2023-03-15T11:49:11;1016.29;;;14.04;68.34
64230;BME280;50547;49.498;0.092;2023-03-15T11:51:43;1016.27;;;14.14;67.58
64230;BME280;50547;49.498;0.092;2023-03-15T11:54:14;1016.35;;;14.34;66.06
64230;BME280;50547;49.498;0.092;2023-03-15T11:56:48;1016.33;;;13.24;68.34
64230;BME280;50547;49.498;0.092;2023-03-15T11:59:20;1016.33;;;12.79;70.58
64230;BME280;50547;49.498;0.092;2023-03-15T12:01:56;1016.29;;;13.23;68.52
64230;BME280;50547;49.498;0.092;2023-03-15T12:04:38;1016.19;;;13.49;66.78
64230;BME280;50547;49.498;0.092;2023-03-15T12:07:05;1016.25;;;13.83;66.29
64230;BME280;50547;49.498;0.092;2023-03-15T12:09:52;1016.19;;;14.01;66.49
64230;BME280;50547;49.498;0.092;2023-03-15T12:12:37;1016.16;;;13.91;65.76
64230;BME280;50547;49.498;0.092;2023-03-15T12:15:41;1016.14;;;13.80;66.13
64230;BME280;50547;49.498;0.092;2023-03-15T12:18:15;1016.08;;;13.69;65.92
64230;BME280;50547;49.498;0.092;2023-03-15T12:21:12;1016.10;;;13.80;65.25
64230;BME280;50547;49.498;0.092;2023-03-15T12:23:46;1016.04;;;14.02;65.18
64230;BME280;50547;49.498;0.092;2023-03-15T12:26:37;1016.10;;;14.45;63.73
64230;BME280;50547;49.498;0.092;2023-03-15T12:29:14;1016.10;;;14.20;62.15
64230;BME280;50547;49.498;0.092;2023-03-15T12:31:50;1016.00;;;13.76;63.65
64230;BME280;50547;49.498;0.092;2023-03-15T12:34:26;1015.98;;;14.11;64.38
64230;BME280;50547;49.498;0.092;2023-03-15T12:37:00;1015.92;;;14.33;62.96
64230;BME280;50547;49.498;0.092;2023-03-15T12:39:38;1015.92;;;14.57;62.89
64230;BME280;50547;49.498;0.092;2023-03-15T12:42:58;1015.86;;;14.62;62.92
64230;BME280;50547;49.498;0.092;2023-03-15T12:45:38;1015.82;;;14.59;61.17
64230;BME280;50547;49.498;0.092;2023-03-15T12:48:26;1015.82;;;14.09;61.98
64230;BME280;50547;49.498;0.092;2023-03-15T12:51:00;1015.80;;;13.97;62.82
64230;BME280;50547;49.498;0.092;2023-03-15T12:53:43;1015.78;;;14.10;62.64
64230;BME280;50547;49.498;0.092;2023-03-15T12:56:53;1015.70;;;14.30;61.71
64230;BME280;50547;49.498;0.092;2023-03-15T12:59:32;1015.70;;;14.48;61.55
64230;BME280;50547;49.498;0.092;2023-03-15T13:02:18;1015.68;;;14.64;60.79
64230;BME280;50547;49.498;0.092;2023-03-15T13:05:06;1015.58;;;14.84;60.45
64230;BME280;50547;49.498;0.092;2023-03-15T13:07:51;1015.60;;;14.64;60.16
64230;BME280;50547;49.498;0.092;2023-03-15T13:10:35;1015.54;;;14.85;59.34
64230;BME280;50547;49.498;0.092;2023-03-15T13:13:14;1015.52;;;14.99;59.34
64230;BME280;50547;49.498;0.092;2023-03-15T13:16:03;1015.50;;;15.17;59.21
64230;BME280;50547;49.498;0.092;2023-03-15T13:18:43;1015.50;;;15.41;59.23
64230;BME280;50547;49.498;0.092;2023-03-15T13:21:19;1015.48;;;15.45;57.50
64230;BME280;50547;49.498;0.092;2023-03-15T13:23:55;1015.46;;;15.32;57.89
64230;BME280;50547;49.498;0.092;2023-03-15T13:26:39;1015.48;;;15.56;57.98
64230;BME280;50547;49.498;0.092;2023-03-15T13:29:15;1015.42;;;15.49;56.90
64230;BME280;50547;49.498;0.092;2023-03-15T13:31:59;1015.34;;;15.53;57.56
64230;BME280;50547;49.498;0.092;2023-03-15T13:34:31;1015.25;;;15.61;56.18
64230;BME280;50547;49.498;0.092;2023-03-15T13:37:00;1015.25;;;15.73;56.22
64230;BME280;50547;49.498;0.092;2023-03-15T13:39:31;1015.21;;;15.89;55.49
64230;BME280;50547;49.498;0.092;2023-03-15T13:42:02;1015.27;;;16.13;55.24
64230;BME280;50547;49.498;0.092;2023-03-15T13:44:32;1015.11;;;16.06;53.57